Time;durP1;ratioP1;P1;durP2;ratioP2;P2;SDS_P1;SDS_P2;PMS_P1;PMS_P2;Temp;Humidity;BMP_temperature;BMP_pressure;BME280_temperature;BME280_humidity;BME280_pressure;Samples;Min_cycle;Max_cycle;Signal;HPM_P1;HPM_P2
2024/01/18 00:02:15;;;;;;;34.75;19.23;;;0.90;99.90;;;1.19;71.90;98181.00;4977314;28;20050;-87
2024/01/18 00:04:43;;;;;;;35.95;19.75;;;0.90;99.90;;;1.19;71.90;98174.97;4993135;28;20051;-88
2024/01/18 00:07:12;;;;;;;31.17;18.65;;;0.90;99.90;;;1.18;71.75;98182.03;4992744;28;20047;-88
2024/01/18 00:09:43;;;;;;;38.22;19.80;;;0.90;99.90;;;1.17;72.06;98180.44;4999854;28;20050;-88
2024/01/18 00:12:12;;;;;;;31.95;19.27;;;0.90;99.90;;;1.18;71.72;98182.03;4998903;28;20065;-87
2024/01/18 00:14:39;;;;;;;36.22;19.45;;;0.90;99.90;;;1.21;71.60;98186.84;5012823;28;20042;-87
2024/01/18 00:17:07;;;;;;;36.40;19.83;;;0.90;99.90;;;1.21;70.87;98192.09;5009085;28;20042;-87
2024/01/18 00:19:34;;;;;;;34.28;20.05;;;0.90;99.90;;;1.23;71.03;98205.84;4993577;28;20050;-87
2024/01/18 00:22:02;;;;;;;33.15;19.65;;;0.90;99.90;;;1.23;71.13;98205.84;5000015;28;20046;-87
2024/01/18 00:24:30;;;;;;;32.88;19.70;;;0.90;99.90;;;1.20;71.41;98208.88;5009641;28;20065;-87
2024/01/18 00:27:00;;;;;;;34.85;19.45;;;0.90;99.90;;;1.19;71.42;98207.25;4996788;28;20053;-87
2024/01/18 00:29:31;;;;;;;34.47;20.05;;;0.90;99.90;;;1.22;71.41;98211.28;4993897;28;20030;-88
2024/01/18 00:31:59;;;;;;;36.80;19.75;;;0.90;99.90;;;1.21;71.36;98217.53;4993107;28;20047;-87
2024/01/18 00:34:28;;;;;;;36.13;20.75;;;0.90;99.90;;;1.20;71.26;98214.13;4984640;28;20051;-87
2024/01/18 00:36:56;;;;;;;34.28;19.10;;;0.90;99.90;;;1.19;71.71;98216.97;5001012;28;20039;-88
2024/01/18 00:39:24;;;;;;;36.42;20.92;;;0.90;99.90;;;1.19;71.74;98219.59;5012742;28;20062;-88
2024/01/18 00:41:51;;;;;;;36.20;20.27;;;0.90;99.90;;;1.18;71.60;98210.09;5001353;28;20046;-87
2024/01/18 00:44:20;;;;;;;37.80;20.40;;;0.90;99.90;;;1.18;71.55;98217.97;4978159;28;20035;-87
2024/01/18 00:46:49;;;;;;;37.00;21.58;;;0.90;99.90;;;1.18;71.39;98224.03;4993716;28;20139;-87
2024/01/18 00:49:17;;;;;;;36.17;19.80;;;0.90;99.90;;;1.17;70.96;98229.47;4993666;28;20051;-87
2024/01/18 00:51:44;;;;;;;39.17;21.05;;;0.90;99.90;;;1.16;71.09;98231.28;4998274;28;20481;-87
2024/01/18 00:54:12;;;;;;;35.38;20.70;;;0.90;99.90;;;1.18;70.91;98241.59;4994144;28;20070;-87
2024/01/18 00:56:39;;;;;;;39.70;21.48;;;0.90;99.90;;;1.20;70.31;98248.25;4995678;28;20057;-88
2024/01/18 00:59:08;;;;;;;40.95;20.42;;;0.90;99.90;;;1.20;70.65;98247.44;5028284;28;20057;-87
2024/01/18 01:01:35;;;;;;;36.08;20.20;;;0.90;99.90;;;1.21;70.59;98241.97;5010482;28;20046;-89
2024/01/18 01:04:08;;;;;;;36.40;20.58;;;0.90;99.90;;;1.22;70.34;98250.66;4954739;28;20513;-89
2024/01/18 01:06:35;;;;;;;37.33;20.67;;;0.90;99.90;;;1.23;70.15;98255.72;4977161;28;20061;-88
2024/01/18 01:09:03;;;;;;;39.00;20.55;;;0.90;99.90;;;1.26;70.12;98263.16;4993664;28;20042;-88
2024/01/18 01:11:31;;;;;;;37.35;21.95;;;1.20;99.90;;;1.25;70.19;98260.75;4999313;28;20061;-87
2024/01/18 01:13:58;;;;;;;37.53;20.80;;;0.90;99.90;;;1.25;70.38;98271.25;4996508;28;20051;-87
2024/01/18 01:16:27;;;;;;;35.92;20.83;;;0.90;99.90;;;1.23;70.66;98273.28;4994057;28;20027;-88
2024/01/18 01:18:55;;;;;;;36.78;21.10;;;0.90;99.90;;;1.21;70.59;98270.06;4999871;28;20038;-88
2024/01/18 01:21:26;;;;;;;34.83;20.70;;;0.80;99.90;;;1.18;70.64;98255.53;5015473;28;20046;-87
2024/01/18 01:23:56;;;;;;;;;;;0.90;99.90;;;1.20;70.77;98257.94;4998936;28;20043;-88
2024/01/18 01:26:23;;;;;;;39.72;21.60;;;0.90;99.90;;;1.20;70.76;98268.44;5008760;28;19922;-88
2024/01/18 01:28:50;;;;;;;40.03;21.50;;;0.90;99.90;;;1.20;70.50;98278.94;4997891;28;20045;-88
2024/01/18 01:31:18;;;;;;;35.90;20.77;;;0.90;99.90;;;1.19;70.57;98279.97;4998541;28;20057;-88
2024/01/18 01:33:46;;;;;;;39.33;20.80;;;0.90;99.90;;;1.19;70.36;98286.00;4999504;28;20054;-88
2024/01/18 01:36:14;;;;;;;38.00;21.38;;;0.90;99.90;;;1.19;70.53;98282.59;5000306;28;20074;-89
2024/01/18 01:38:43;;;;;;;40.35;22.23;;;0.90;99.90;;;1.20;70.58;98277.13;5016223;28;20038;-89
2024/01/18 01:41:15;;;;;;;37.50;22.13;;;0.90;99.90;;;1.21;70.61;98275.31;4996356;28;20063;-87
2024/01/18 01:43:58;;;;;;;37.13;21.80;;;0.90;99.90;;;1.21;70.63;98275.31;5004646;28;20073;-88
2024/01/18 01:46:26;;;;;;;35.78;20.70;;;0.90;99.90;;;1.21;70.49;98270.84;5006467;28;20054;-88
2024/01/18 01:48:58;;;;;;;36.95;22.83;;;0.90;99.90;;;1.22;70.54;98277.75;4997131;28;20085;-87
2024/01/18 01:51:27;;;;;;;37.90;22.00;;;0.90;99.90;;;1.21;70.25;98283.97;4993701;28;20049;-87
2024/01/18 01:53:57;;;;;;;36.22;21.73;;;0.90;99.90;;;1.22;70.62;98287.41;5009632;28;20043;-88
2024/01/18 01:56:25;;;;;;;36.83;22.15;;;0.90;99.90;;;1.20;70.71;98287.63;5015698;28;20042;-87
2024/01/18 01:58:54;;;;;;;36.83;21.92;;;0.90;99.90;;;1.18;71.10;98291.47;4998585;28;20074;-87
2024/01/18 02:01:22;;;;;;;35.33;21.63;;;0.90;99.90;;;1.18;70.93;98292.28;4996257;28;20042;-87
2024/01/18 02:03:50;;;;;;;35.40;21.23;;;1.00;99.90;;;1.18;70.82;98301.97;4995587;28;20070;-87
2024/01/18 02:06:19;;;;;;;37.58;22.50;;;1.20;99.90;;;1.19;70.86;98300.97;4996682;28;20046;-88
2024/01/18 02:08:47;;;;;;;37.70;20.80;;;0.90;99.90;;;1.19;70.88;98300.97;5024634;28;20043;-87
2024/01/18 02:11:18;;;;;;;36.63;22.10;;;0.90;99.90;;;1.16;70.95;98310.03;4999988;28;20110;-87
2024/01/18 02:13:46;;;;;;;33.65;21.00;;;0.90;99.90;;;1.20;71.25;98318.31;4995479;28;20055;-87
2024/01/18 02:16:13;;;;;;;37.55;22.27;;;0.90;99.90;;;1.20;71.12;98316.50;5011683;28;20026;-88
2024/01/18 02:18:41;;;;;;;38.30;22.35;;;1.00;99.90;;;1.18;70.87;98315.91;5015590;28;20073;-88
2024/01/18 02:21:10;;;;;;;39.30;22.30;;;0.90;99.90;;;1.17;71.28;98324.81;5015694;28;20042;-88
2024/01/18 02:23:40;;;;;;;35.53;20.92;;;0.90;99.90;;;1.16;71.69;98325.00;5014564;28;20046;-87
2024/01/18 02:26:09;;;;;;;39.03;21.00;;;0.80;99.90;;;1.14;71.41;98327.03;5004134;28;20134;-88
2024/01/18 02:28:37;;;;;;;34.72;21.67;;;1.00;99.90;;;1.16;71.45;98338.13;4998116;28;20089;-87
2024/01/18 02:31:05;;;;;;;40.13;22.95;;;0.90;99.90;;;1.16;71.33;98332.88;4997587;28;20062;-87
2024/01/18 02:33:33;;;;;;;37.22;21.80;;;0.90;99.90;;;1.18;71.65;98328.22;5008523;28;20114;-87
2024/01/18 02:36:01;;;;;;;37.92;22.15;;;0.90;99.90;;;1.16;71.40;98327.63;4999524;28;20488;-87
2024/01/18 02:38:30;;;;;;;36.20;21.00;;;0.90;99.90;;;1.16;71.70;98322.38;5014657;28;20073;-88
2024/01/18 02:40:59;;;;;;;38.97;22.40;;;0.80;99.90;;;1.14;71.75;98317.31;4995439;28;20055;-87
2024/01/18 02:43:30;;;;;;;44.60;22.35;;;0.80;99.90;;;1.15;71.88;98316.31;4994145;28;20054;-87
2024/01/18 02:45:57;;;;;;;39.40;22.67;;;0.80;99.90;;;1.15;71.57;98307.63;4995746;28;20050;-88
2024/01/18 02:48:25;;;;;;;36.60;21.77;;;0.80;99.90;;;1.15;71.73;98307.63;5002471;28;20049;-87
2024/01/18 02:50:52;;;;;;;37.55;22.27;;;0.80;99.90;;;1.19;71.70;98309.66;5001881;28;20077;-88
2024/01/18 02:53:20;;;;;;;34.97;22.20;;;0.90;99.90;;;1.18;71.79;98310.66;4994838;28;20043;-87
2024/01/18 02:55:49;;;;;;;38.33;22.67;;;0.90;99.90;;;1.17;71.71;98313.47;4985961;28;20047;-88
2024/01/18 02:58:17;;;;;;;39.35;22.45;;;0.90;99.90;;;1.16;71.97;98320.53;4980416;28;20042;-88
2024/01/18 03:00:45;;;;;;;39.30;22.48;;;0.90;99.90;;;1.16;71.82;98314.50;4993707;28;20058;-88
2024/01/18 03:03:14;;;;;;;40.47;22.35;;;0.90;99.90;;;1.15;71.83;98308.44;4998303;28;20110;-88
2024/01/18 03:05:48;;;;;;;39.13;22.50;;;0.80;99.90;;;1.14;71.81;98308.66;5012565;28;20146;-87
2024/01/18 03:08:17;;;;;;;37.90;22.08;;;0.80;99.90;;;1.14;71.72;98313.91;4998280;28;20145;-87
2024/01/18 03:10:48;;;;;;;40.35;23.60;;;0.80;99.90;;;1.15;71.90;98318.13;4996106;28;20050;-87
2024/01/18 03:13:16;;;;;;;41.92;22.95;;;1.10;99.90;;;1.14;71.71;98314.69;5006244;28;20046;-87
2024/01/18 03:15:45;;;;;;;42.95;23.02;;;0.80;99.90;;;1.14;71.81;98316.53;4997561;28;20070;-87
2024/01/18 03:18:14;;;;;;;41.53;22.37;;;0.80;99.90;;;1.13;71.91;98330.66;4984777;28;20042;-88
2024/01/18 03:21:49;;;;;;;35.72;21.98;;;0.80;99.90;;;1.12;71.57;98329.03;4992196;28;20066;-87
2024/01/18 03:24:17;;;;;;;35.17;21.40;;;0.80;99.90;;;1.10;71.69;98331.06;4978850;28;20054;-87
2024/01/18 03:26:44;;;;;;;37.25;22.17;;;0.80;99.90;;;1.09;71.70;98329.44;5006141;28;20042;-87
2024/01/18 03:29:12;;;;;;;39.88;24.35;;;0.80;99.90;;;1.09;71.63;98338.13;4993738;28;20043;-88
2024/01/18 03:31:41;;;;;;;41.45;23.48;;;0.80;99.90;;;1.09;71.19;98342.56;4993535;28;20053;-87
2024/01/18 03:34:08;;;;;;;39.42;22.95;;;0.80;99.90;;;1.11;71.25;98343.16;4993773;28;20047;-88
2024/01/18 03:36:36;;;;;;;40.90;23.85;;;0.80;99.90;;;1.12;71.18;98339.53;4993723;28;20070;-87
2024/01/18 03:39:06;;;;;;;38.50;23.67;;;0.80;99.90;;;1.14;70.88;98333.06;4994818;28;20073;-88
2024/01/18 03:41:35;;;;;;;43.08;23.05;;;0.80;99.90;;;1.18;71.09;98343.97;4994930;28;20039;-87
2024/01/18 03:44:02;;;;;;;43.58;24.33;;;0.80;99.90;;;1.19;70.74;98338.53;5012789;28;20055;-87
2024/01/18 03:46:30;;;;;;;38.78;23.52;;;0.90;99.90;;;1.20;70.70;98344.56;5008736;28;20050;-88
2024/01/18 03:48:59;;;;;;;42.72;23.90;;;0.90;99.90;;;1.20;70.81;98326.19;5004726;28;20047;-87
2024/01/18 03:51:26;;;;;;;40.83;23.73;;;0.90;99.90;;;1.21;70.64;98330.44;4993390;28;20042;-88
2024/01/18 03:53:53;;;;;;;40.45;24.55;;;1.00;99.90;;;1.21;70.79;98339.13;4994696;28;20053;-87
2024/01/18 03:56:25;;;;;;;41.58;23.80;;;0.90;99.90;;;1.21;70.91;98327.81;5009942;28;20037;-87
2024/01/18 03:58:54;;;;;;;40.83;23.85;;;0.90;99.90;;;1.21;70.89;98317.31;4998379;28;20046;-87
2024/01/18 04:01:22;;;;;;;39.72;23.25;;;0.90;99.90;;;1.21;70.81;98319.94;4999712;28;20050;-87
2024/01/18 04:03:52;;;;;;;40.38;25.10;;;0.90;99.90;;;1.23;70.92;98320.56;4978178;28;20043;-87
2024/01/18 04:06:31;;;;;;;45.42;25.80;;;0.90;99.90;;;1.21;70.58;98322.56;4994471;28;20070;-88
2024/01/18 04:08:58;;;;;;;40.78;24.20;;;0.90;99.90;;;1.17;71.19;98337.94;4963600;28;20053;-87
2024/01/18 04:11:29;;;;;;;41.72;23.80;;;0.90;99.90;;;1.13;71.37;98331.47;4995426;28;20078;-87
2024/01/18 04:13:56;;;;;;;41.90;24.27;;;0.90;99.90;;;1.14;71.40;98337.53;4995470;28;20043;-88
2024/01/18 04:16:24;;;;;;;38.83;24.25;;;0.80;99.90;;;1.13;71.41;98341.97;4994495;28;20042;-87
2024/01/18 04:18:53;;;;;;;40.60;24.23;;;0.80;99.90;;;1.13;71.40;98341.16;5003085;28;20026;-87
2024/01/18 04:21:23;;;;;;;38.20;23.77;;;0.80;99.90;;;1.14;71.47;98348.81;5015373;28;20046;-87
2024/01/18 04:23:56;;;;;;;40.92;24.75;;;0.80;99.90;;;1.14;71.41;98361.94;5008391;28;20035;-87
2024/01/18 04:26:23;;;;;;;42.70;24.00;;;0.80;99.90;;;1.15;71.43;98357.50;4976038;28;20047;-87
2024/01/18 04:28:51;;;;;;;40.05;24.10;;;0.80;99.90;;;1.12;71.48;98366.56;4989993;28;20054;-87
2024/01/18 04:31:18;;;;;;;42.58;23.60;;;0.80;99.90;;;1.10;71.53;98379.09;4993993;28;20055;-87
2024/01/18 04:33:45;;;;;;;42.22;24.23;;;0.80;99.90;;;1.12;71.63;98371.81;4945768;29;20028;-87
2024/01/18 04:36:13;;;;;;;40.83;24.10;;;0.80;99.90;;;1.11;71.61;98375.47;4946867;29;20087;-88
2024/01/18 04:38:42;;;;;;;39.72;23.77;;;0.80;99.90;;;1.13;71.73;98375.28;4930340;29;20078;-88
2024/01/18 04:41:09;;;;;;;38.35;23.35;;;0.80;99.90;;;1.15;71.76;98370.63;4939904;29;20043;-88
2024/01/18 04:43:37;;;;;;;39.28;24.23;;;0.80;99.90;;;1.16;71.67;98383.53;4940089;29;20051;-88
2024/01/18 04:46:05;;;;;;;45.10;25.05;;;0.90;99.90;;;1.16;71.38;98382.75;4953146;29;20120;-88
2024/01/18 04:48:34;;;;;;;41.42;25.02;;;0.90;99.90;;;1.16;71.38;98380.13;4953484;29;20084;-88
2024/01/18 04:51:02;;;;;;;43.47;24.40;;;0.80;99.90;;;1.18;71.30;98393.88;4952016;29;20071;-88
2024/01/18 04:53:31;;;;;;;42.38;24.63;;;0.90;99.90;;;1.16;71.28;98382.75;4953215;29;20043;-88
2024/01/18 04:56:05;;;;;;;45.45;25.33;;;0.90;99.90;;;1.18;71.34;98396.50;4918692;29;20139;-88
2024/01/18 04:58:32;;;;;;;41.72;24.77;;;0.90;99.90;;;1.19;71.16;98405.97;4935454;29;20048;-88
2024/01/18 05:01:01;;;;;;;45.35;25.88;;;0.90;99.90;;;1.19;70.94;98409.41;4933424;29;20037;-87
2024/01/18 05:03:28;;;;;;;45.78;24.98;;;0.90;99.90;;;1.20;71.16;98410.22;4917976;29;20052;-88
2024/01/18 05:05:58;;;;;;;45.92;25.17;;;0.80;99.90;;;1.20;71.11;98407.59;4988891;28;20114;-85
2024/01/18 05:08:26;;;;;;;39.22;23.80;;;0.90;99.90;;;1.19;71.20;98419.09;4975947;28;20053;-85
2024/01/18 05:10:55;;;;;;;44.35;24.38;;;0.90;99.90;;;1.18;70.89;98422.75;4975864;28;20042;-87
2024/01/18 05:13:25;;;;;;;39.70;24.55;;;0.80;99.90;;;1.17;71.17;98411.44;4925735;28;20046;-87
2024/01/18 05:15:53;;;;;;;43.17;24.50;;;0.80;99.90;;;1.20;71.13;98404.97;4973974;28;20053;-84
2024/01/18 05:18:21;;;;;;;42.35;24.40;;;0.80;99.90;;;1.20;70.99;98410.22;4972969;28;20513;-86
2024/01/18 05:20:49;;;;;;;41.95;24.27;;;0.80;99.90;;;1.22;70.99;98413.44;4971647;28;20051;-84
2024/01/18 05:23:16;;;;;;;40.80;24.65;;;0.90;99.90;;;1.21;70.95;98423.13;4958995;28;20141;-85
2024/01/18 05:25:44;;;;;;;44.95;25.00;;;0.90;99.90;;;1.21;71.06;98430.19;4958441;28;20043;-85
2024/01/18 05:28:12;;;;;;;42.85;25.50;;;0.90;99.90;;;1.21;70.95;98430.19;4974177;28;20055;-85
2024/01/18 05:30:41;;;;;;;41.75;25.00;;;0.90;99.90;;;1.19;70.99;98434.84;4976387;28;20074;-85
2024/01/18 05:33:08;;;;;;;43.10;25.17;;;0.80;99.90;;;1.17;70.79;98442.09;4986337;28;20138;-86
2024/01/18 05:35:36;;;;;;;39.33;24.92;;;0.80;99.90;;;1.14;70.92;98453.03;4987451;28;20051;-88
2024/01/18 05:38:04;;;;;;;43.72;25.02;;;0.90;99.90;;;1.13;70.88;98454.84;4963938;28;20074;-86
2024/01/18 05:40:32;;;;;;;39.88;25.13;;;0.80;99.90;;;1.11;71.23;98464.72;4995273;28;20134;-86
2024/01/18 05:43:20;;;;;;;40.90;24.27;;;0.80;99.90;;;1.10;71.06;98457.06;4920322;28;20073;-85
2024/01/18 05:45:50;;;;;;;38.53;23.52;;;0.80;99.90;;;1.07;70.94;98446.94;4967361;28;20078;-84
2024/01/18 05:48:17;;;;;;;40.08;24.08;;;0.70;99.90;;;1.08;71.16;98453.81;4967087;28;20118;-84
2024/01/18 05:50:45;;;;;;;40.78;24.50;;;0.70;99.90;;;1.10;70.83;98443.91;4962606;28;20046;-83
2024/01/18 05:53:12;;;;;;;41.75;25.52;;;0.70;99.90;;;1.09;70.98;98451.00;4976934;28;20048;-84
2024/01/18 05:55:40;;;;;;;40.03;24.45;;;0.80;99.90;;;1.08;71.04;98462.50;4956393;28;20447;-84
2024/01/18 05:58:07;;;;;;;41.88;23.67;;;0.70;99.90;;;1.07;71.07;98457.44;4960420;28;20055;-83
2024/01/18 06:00:35;;;;;;;37.92;23.98;;;0.70;99.90;;;1.05;71.08;98470.78;4941884;28;20051;-84
2024/01/18 06:03:05;;;;;;;40.08;23.40;;;0.70;99.90;;;1.05;71.03;98477.84;4961989;28;20045;-84
2024/01/18 06:05:34;;;;;;;40.90;24.30;;;0.70;99.90;;;1.02;70.90;98472.00;4940052;29;20047;-84
2024/01/18 06:08:02;;;;;;;42.88;25.35;;;0.70;99.90;;;1.02;70.96;98476.41;4996100;28;20042;-85
2024/01/18 06:10:31;;;;;;;43.00;24.15;;;0.70;99.90;;;1.03;71.13;98488.53;5004737;28;20046;-85
2024/01/18 06:12:59;;;;;;;41.75;23.88;;;0.70;99.90;;;1.03;71.01;98486.72;4977433;28;20584;-85
2024/01/18 06:15:26;;;;;;;46.10;25.33;;;0.70;99.90;;;1.03;71.15;98481.47;4968416;28;20039;-85
2024/01/18 06:18:03;;;;;;;40.80;24.80;;;0.90;99.90;;;1.03;70.87;98481.47;4925409;28;20046;-88
2024/01/18 06:20:33;;;;;;;43.15;24.48;;;0.70;99.90;;;1.04;70.81;98487.53;4950909;28;20047;-85
2024/01/18 06:23:01;;;;;;;39.45;24.48;;;0.70;99.90;;;1.07;70.99;98489.75;4968122;28;20047;-85
2024/01/18 06:25:29;;;;;;;46.67;25.23;;;0.70;99.90;;;1.06;71.00;98493.38;4992978;28;20057;-85
2024/01/18 06:27:57;;;;;;;43.17;24.67;;;0.70;99.90;;;1.05;70.88;98488.34;4972317;28;20506;-85
2024/01/18 06:30:24;;;;;;;42.28;25.13;;;0.70;99.90;;;1.03;70.98;98496.41;4962458;29;20049;-85
2024/01/18 06:32:52;;;;;;;44.90;26.10;;;0.70;99.90;;;1.01;71.00;98507.09;4947512;28;20078;-85
2024/01/18 06:35:19;;;;;;;43.47;25.55;;;0.70;99.90;;;1.02;70.99;98515.78;4988498;28;20062;-85
2024/01/18 06:37:48;;;;;;;42.47;25.58;;;0.60;99.90;;;0.98;70.64;98506.69;4979235;28;20117;-84
2024/01/18 06:40:18;;;;;;;41.60;24.73;;;0.60;99.90;;;0.97;70.80;98516.38;4977539;28;20043;-84
2024/01/18 06:42:47;;;;;;;45.42;25.08;;;0.60;99.90;;;0.96;70.73;98513.94;4982011;28;20093;-84
2024/01/18 06:45:15;;;;;;;43.95;24.42;;;0.60;99.90;;;0.96;70.48;98513.94;4981680;28;20105;-84
2024/01/18 06:47:43;;;;;;;38.35;23.88;;;0.60;99.90;;;0.95;70.53;98521.00;4981581;28;20557;-84
2024/01/18 06:50:13;;;;;;;39.58;25.13;;;0.60;99.90;;;0.92;70.39;98524.03;4964273;28;20047;-84
2024/01/18 06:52:41;;;;;;;44.53;27.05;;;0.50;99.90;;;0.90;70.08;98517.38;4980791;28;20132;-84
2024/01/18 06:55:10;;;;;;;48.88;27.85;;;0.50;99.90;;;0.87;69.88;98530.88;4943844;28;20507;-84
2024/01/18 06:57:39;;;;;;;48.25;27.02;;;0.50;99.90;;;0.83;69.93;98529.63;4997681;28;20038;-85
2024/01/18 07:00:08;;;;;;;43.22;26.60;;;0.40;99.90;;;0.80;69.93;98541.34;4988500;28;20101;-85
2024/01/18 07:02:38;;;;;;;42.35;25.42;;;0.40;99.90;;;0.79;69.88;98549.44;4934325;28;20047;-84
2024/01/18 07:05:07;;;;;;;44.42;26.58;;;0.40;99.90;;;0.76;69.63;98548.00;4986663;28;20046;-84
2024/01/18 07:07:36;;;;;;;43.75;25.88;;;0.40;99.90;;;0.74;69.63;98557.88;4982976;28;20070;-85
2024/01/18 07:10:05;;;;;;;41.30;25.13;;;0.30;99.90;;;0.71;69.41;98558.25;4985079;28;20120;-84
2024/01/18 07:12:34;;;;;;;42.45;24.38;;;0.30;99.90;;;0.69;69.41;98568.16;4990502;28;20576;-85
2024/01/18 07:15:03;;;;;;;53.88;30.30;;;0.30;99.90;;;0.67;69.61;98578.00;4982972;28;20501;-84
2024/01/18 07:17:31;;;;;;;47.50;28.10;;;0.20;99.90;;;0.63;69.34;98576.78;4980651;28;20058;-84
2024/01/18 07:19:58;;;;;;;50.47;26.90;;;0.20;99.90;;;0.58;68.83;98579.16;4981102;28;20050;-84
2024/01/18 07:22:27;;;;;;;46.50;27.58;;;0.10;99.90;;;0.55;69.18;98585.63;4965037;28;20074;-84
2024/01/18 07:24:54;;;;;;;44.30;25.25;;;0.10;99.90;;;0.54;69.03;98591.03;4979624;28;20058;-84
2024/01/18 07:27:22;;;;;;;44.08;26.73;;;0.00;99.90;;;0.52;69.17;98594.69;4981441;28;20050;-84
2024/01/18 07:29:52;;;;;;;45.35;25.02;;;0.00;99.90;;;0.49;68.90;98608.19;4979216;28;20085;-84
2024/01/18 07:32:20;;;;;;;50.15;27.00;;;0.00;99.90;;;0.49;68.86;98608.19;4980835;28;20050;-85
2024/01/18 07:34:47;;;;;;;48.85;27.17;;;0.00;99.90;;;0.47;68.73;98604.94;4984088;28;20042;-84
2024/01/18 07:37:15;;;;;;;42.17;25.08;;;0.00;99.90;;;0.46;68.49;98608.56;4973364;28;20085;-84
2024/01/18 07:39:43;;;;;;;41.92;25.77;;;0.00;99.90;;;0.45;68.70;98606.94;4965928;28;20050;-85
2024/01/18 07:42:10;;;;;;;45.72;26.90;;;0.00;99.90;;;0.44;68.78;98607.13;4998945;28;20071;-84
2024/01/18 07:44:39;;;;;;;55.70;30.15;;;0.00;99.90;;;0.44;68.52;98621.06;4999798;28;20557;-85
2024/01/18 07:47:10;;;;;;;47.20;28.23;;;-0.10;99.90;;;0.40;68.40;98613.78;4999749;28;20042;-84
2024/01/18 07:49:41;;;;;;;;;;;-0.10;99.90;;;0.39;68.49;98617.38;4967012;28;20054;-84
2024/01/18 07:52:08;;;;;;;47.20;27.10;;;-0.10;99.90;;;0.39;68.42;98622.63;4979682;28;20412;-84
2024/01/18 07:54:36;;;;;;;42.17;25.67;;;-0.10;99.90;;;0.33;68.24;98620.78;4980124;28;20089;-84
2024/01/18 07:57:05;;;;;;;42.97;25.38;;;-0.10;99.90;;;0.31;68.10;98630.66;4962742;28;20054;-84
2024/01/18 07:59:34;;;;;;;43.95;24.65;;;-0.20;99.90;;;0.29;68.38;98628.19;4976783;28;20096;-85
2024/01/18 08:02:02;;;;;;;42.58;25.10;;;-0.20;99.90;;;0.30;68.35;98629.03;4990681;28;20109;-84
2024/01/18 08:04:32;;;;;;;38.95;24.88;;;-0.20;99.90;;;0.29;68.13;98630.00;4966300;28;20047;-85
2024/01/18 08:07:00;;;;;;;48.13;26.90;;;-0.20;99.90;;;0.27;68.17;98640.69;4980918;28;20035;-85
2024/01/18 08:09:28;;;;;;;44.10;25.10;;;-0.20;99.90;;;0.28;68.24;98633.63;4979536;28;20081;-84
2024/01/18 08:11:55;;;;;;;44.35;25.92;;;-0.20;99.90;;;0.27;68.08;98639.88;4991412;28;20046;-85
2024/01/18 08:14:23;;;;;;;44.70;25.95;;;-0.20;99.90;;;0.24;67.75;98651.56;4982239;28;20097;-85
2024/01/18 08:16:50;;;;;;;37.85;23.75;;;-0.20;99.90;;;0.20;67.91;98647.72;4992216;28;20035;-85
2024/01/18 08:19:20;;;;;;;38.90;23.45;;;-0.20;99.90;;;0.20;67.39;98655.56;4981572;28;20055;-84
2024/01/18 08:21:49;;;;;;;45.28;25.35;;;-0.30;99.90;;;0.21;67.63;98654.56;4981651;28;20042;-84
2024/01/18 08:24:17;;;;;;;48.33;26.35;;;-0.30;99.90;;;0.20;67.70;98663.44;4980836;28;20039;-85
2024/01/18 08:26:44;;;;;;;39.30;24.30;;;-0.30;99.90;;;0.18;67.85;98663.59;4965309;28;20038;-85
2024/01/18 08:29:12;;;;;;;46.65;26.77;;;-0.30;99.90;;;0.20;67.82;98666.06;4980238;28;20050;-85
2024/01/18 08:31:40;;;;;;;46.33;27.55;;;-0.30;99.90;;;0.21;67.87;98678.97;4977016;28;20097;-85
2024/01/18 08:34:08;;;;;;;45.20;27.80;;;-0.30;99.90;;;0.23;67.90;98684.81;4903753;28;20055;-85
2024/01/18 08:36:37;;;;;;;47.65;28.10;;;-0.20;99.90;;;0.24;67.70;98690.88;4969817;28;20050;-85
2024/01/18 08:39:07;;;;;;;48.63;28.90;;;-0.20;99.90;;;0.26;68.07;98686.25;4910643;28;20047;-86
2024/01/18 08:41:34;;;;;;;46.45;27.02;;;-0.20;99.90;;;0.27;68.12;98689.69;4969920;28;20039;-85
2024/01/18 08:44:02;;;;;;;44.25;25.80;;;-0.20;99.90;;;0.29;68.07;98696.34;4981017;28;20046;-84
2024/01/18 08:46:30;;;;;;;45.60;26.20;;;-0.20;99.90;;;0.32;68.11;98705.66;4994759;28;20066;-85
2024/01/18 08:48:57;;;;;;;43.28;25.38;;;-0.10;99.90;;;0.34;68.26;98706.28;4981304;28;20054;-85
2024/01/18 08:51:25;;;;;;;43.60;25.48;;;-0.10;99.90;;;0.36;68.22;98707.72;4976164;28;20108;-85
2024/01/18 08:53:53;;;;;;;43.17;25.33;;;-0.10;99.90;;;0.38;68.27;98713.59;4981330;28;20041;-85
2024/01/18 08:56:22;;;;;;;46.47;24.83;;;-0.10;99.90;;;0.39;68.12;98715.22;4976585;28;20125;-85
2024/01/18 08:58:49;;;;;;;43.70;25.55;;;0.00;99.90;;;0.41;68.46;98721.06;4962914;28;20063;-85
2024/01/18 09:01:17;;;;;;;42.42;24.90;;;0.10;99.90;;;0.44;68.33;98725.97;4979269;28;20101;-85
2024/01/18 09:03:44;;;;;;;44.88;25.67;;;0.00;99.90;;;0.49;68.44;98722.78;4992272;28;20046;-86
2024/01/18 09:06:12;;;;;;;47.72;25.92;;;0.00;99.90;;;0.50;68.46;98717.31;4985061;28;20117;-85
2024/01/18 09:08:39;;;;;;;41.47;24.35;;;0.10;99.90;;;0.54;68.74;98736.13;4964003;28;20301;-85
2024/01/18 09:11:07;;;;;;;43.33;25.15;;;0.10;99.90;;;0.57;68.88;98725.22;4956228;28;20116;-85
2024/01/18 09:13:37;;;;;;;42.15;24.98;;;0.20;99.90;;;0.59;68.90;98725.88;4979725;28;20403;-85
2024/01/18 09:16:07;;;;;;;41.33;24.90;;;0.20;99.90;;;0.62;68.95;98732.53;4978650;28;20067;-85
2024/01/18 09:18:34;;;;;;;48.30;25.90;;;0.30;99.90;;;0.65;68.98;98734.78;4956572;29;20051;-85
2024/01/18 09:21:01;;;;;;;42.30;25.70;;;0.30;99.90;;;0.68;68.70;98737.84;4955240;28;20050;-85
2024/01/18 09:23:29;;;;;;;44.92;26.17;;;0.30;99.90;;;0.70;69.17;98750.78;4964838;28;20057;-85
2024/01/18 09:25:56;;;;;;;46.65;26.88;;;0.40;99.90;;;0.73;69.20;98753.84;4966795;28;20446;-86
2024/01/18 09:28:23;;;;;;;42.95;26.00;;;0.40;99.90;;;0.75;69.03;98754.44;4986204;28;20494;-85
2024/01/18 09:30:53;;;;;;;45.65;25.95;;;0.40;99.90;;;0.77;69.45;98767.34;4982792;28;20081;-85
2024/01/18 09:33:20;;;;;;;47.97;25.88;;;0.40;99.90;;;0.79;69.70;98780.31;4979972;28;20051;-85
2024/01/18 09:35:47;;;;;;;42.25;25.30;;;0.40;99.90;;;0.78;69.93;98784.72;4979845;28;20057;-85
2024/01/18 09:38:15;;;;;;;43.25;25.52;;;0.40;99.90;;;0.79;69.72;98790.81;4980001;28;20073;-85
2024/01/18 09:40:43;;;;;;;48.30;25.92;;;0.50;99.90;;;0.81;70.25;98797.47;4979671;28;20430;-86
2024/01/18 09:43:11;;;;;;;44.95;24.33;;;0.50;99.90;;;0.79;70.76;98798.69;4982969;28;20054;-85
2024/01/18 09:45:47;;;;;;;45.45;24.20;;;0.50;99.90;;;0.82;70.67;98793.03;4985866;28;20047;-85
2024/01/18 09:48:16;;;;;;;43.67;23.55;;;0.50;99.90;;;0.87;71.00;98799.31;4997593;28;20046;-85
2024/01/18 09:50:46;;;;;;;39.75;23.02;;;0.60;99.90;;;0.94;70.97;98807.28;4969709;28;20052;-86
2024/01/18 09:53:14;;;;;;;37.17;22.90;;;0.70;99.90;;;0.99;70.86;98812.75;4964732;28;20105;-86
2024/01/18 09:55:43;;;;;;;38.00;23.23;;;0.70;99.90;;;1.05;70.87;98814.63;4966206;28;20047;-86
2024/01/18 09:58:13;;;;;;;42.25;24.67;;;0.80;99.90;;;1.05;70.88;98816.44;4929176;28;20090;-86
2024/01/18 10:00:51;;;;;;;45.47;24.60;;;0.80;99.90;;;1.07;71.31;98828.34;4971090;28;20053;-88
2024/01/18 10:03:20;;;;;;;41.78;23.58;;;0.80;99.90;;;1.12;71.07;98833.03;4968387;28;20062;-86
2024/01/18 10:05:48;;;;;;;44.50;23.48;;;1.20;99.90;;;1.11;71.26;98832.22;4976251;28;20047;-85
2024/01/18 10:08:15;;;;;;;37.50;22.88;;;0.90;99.90;;;1.16;71.39;98829.03;4968768;28;20055;-85
2024/01/18 10:10:44;;;;;;;39.88;23.15;;;0.90;99.90;;;1.18;71.37;98834.91;4985002;28;20485;-88
2024/01/18 10:13:15;;;;;;;41.50;22.90;;;1.00;99.90;;;1.20;71.17;98841.56;4975809;28;20127;-88
2024/01/18 10:15:46;;;;;;;37.35;21.23;;;1.00;99.90;;;1.25;71.21;98854.13;4994975;28;20031;-88
2024/01/18 10:18:14;;;;;;;40.88;21.77;;;1.00;99.90;;;1.28;71.28;98851.16;5009191;28;20043;-89
2024/01/18 10:20:48;;;;;;;34.60;19.35;;;1.10;99.90;;;1.35;71.21;98853.81;4989590;28;20123;-88
2024/01/18 10:23:16;;;;;;;37.50;21.02;;;1.10;99.90;;;1.36;71.37;98853.59;4983738;28;20067;-88
2024/01/18 10:25:49;;;;;;;35.08;19.27;;;1.10;99.90;;;1.38;71.23;98856.88;4974171;28;20042;-88